createdAt,value
2022-08-21T00:00:25.818Z,15.62
2022-08-21T00:02:55.930Z,15.69
2022-08-21T00:05:25.813Z,15.15
2022-08-21T00:07:54.088Z,14.56
2022-08-21T00:10:23.225Z,14.45
2022-08-21T00:12:52.172Z,14.61
2022-08-21T00:15:23.187Z,13.91
2022-08-21T00:17:51.177Z,13.55
2022-08-21T00:20:19.676Z,14.82
2022-08-21T00:22:49.544Z,15.45
2022-08-21T00:25:17.838Z,15.69
2022-08-21T00:27:48.013Z,15.73
2022-08-21T00:30:23.383Z,15.69
2022-08-21T00:32:52.501Z,16.32
2022-08-21T00:35:28.681Z,16.12
2022-08-21T00:37:58.158Z,15.65
2022-08-21T00:40:33.173Z,14.74
2022-08-21T00:43:01.574Z,15.03
2022-08-21T00:45:31.089Z,15.10
2022-08-21T00:47:59.389Z,14.36
2022-08-21T00:50:32.246Z,13.87
2022-08-21T00:53:03.203Z,13.13
2022-08-21T00:55:32.059Z,13.33
2022-08-21T00:58:03.070Z,13.75
2022-08-21T01:00:34.075Z,13.29
2022-08-21T01:03:07.422Z,13.43
2022-08-21T01:05:37.244Z,13.46
2022-08-21T01:08:07.380Z,13.00
2022-08-21T01:10:36.120Z,13.35
2022-08-21T01:13:07.997Z,13.51
2022-08-21T01:15:39.658Z,13.41
2022-08-21T01:18:09.241Z,13.48
2022-08-21T01:20:39.426Z,13.35
2022-08-21T01:23:08.858Z,13.74
2022-08-21T01:25:37.754Z,14.18
2022-08-21T01:28:16.363Z,14.65
2022-08-21T01:30:45.730Z,14.11
2022-08-21T01:33:13.721Z,14.68
2022-08-21T01:35:41.740Z,14.82
2022-08-21T01:38:11.286Z,14.51
2022-08-21T01:40:39.331Z,13.87
2022-08-21T01:43:07.639Z,14.16
2022-08-21T01:45:35.666Z,14.21
2022-08-21T01:48:03.991Z,14.13
2022-08-21T01:50:32.535Z,14.38
2022-08-21T01:53:00.598Z,14.63
2022-08-21T01:55:30.100Z,14.64
2022-08-21T01:57:59.500Z,14.44
2022-08-21T02:00:28.012Z,14.37
2022-08-21T02:02:57.551Z,14.13
2022-08-21T02:05:25.656Z,13.91
2022-08-21T02:07:56.534Z,13.57
2022-08-21T02:10:25.894Z,13.36
2022-08-21T02:12:56.181Z,13.63
2022-08-21T02:15:24.960Z,13.95
2022-08-21T02:17:55.984Z,14.21
2022-08-21T02:20:26.236Z,13.98
2022-08-21T02:22:55.266Z,13.88
2022-08-21T02:25:24.793Z,13.86
2022-08-21T02:27:53.489Z,14.51
2022-08-21T02:30:25.404Z,14.83
2022-08-21T02:32:53.820Z,15.04
2022-08-21T02:35:22.409Z,14.81
2022-08-21T02:37:52.793Z,14.31
2022-08-21T02:40:22.713Z,14.45
2022-08-21T02:42:51.008Z,14.42
2022-08-21T02:45:20.032Z,14.64
2022-08-21T02:47:54.394Z,14.68
2022-08-21T02:50:28.298Z,14.96
2022-08-21T02:52:57.155Z,14.84
2022-08-21T02:55:27.984Z,14.63
2022-08-21T02:57:56.769Z,14.80
2022-08-21T03:00:26.928Z,14.76
2022-08-21T03:02:57.343Z,14.92
2022-08-21T03:05:26.979Z,14.94
2022-08-21T03:07:55.772Z,14.94
2022-08-21T03:10:25.986Z,14.73
2022-08-21T03:12:55.481Z,14.53
2022-08-21T03:15:25.924Z,14.16
2022-08-21T03:17:55.566Z,14.16
2022-08-21T03:20:28.357Z,13.73
2022-08-21T03:22:57.568Z,13.49
2022-08-21T03:25:39.749Z,13.67
2022-08-21T03:28:13.187Z,13.71
2022-08-21T03:30:42.383Z,14.09
2022-08-21T03:33:13.276Z,14.56
2022-08-21T03:35:46.243Z,14.65
2022-08-21T03:38:15.128Z,14.69
2022-08-21T03:40:43.715Z,14.52
2022-08-21T03:43:11.881Z,14.41
2022-08-21T03:45:40.940Z,14.35
2022-08-21T03:48:10.229Z,13.99
2022-08-21T03:50:41.527Z,13.32
2022-08-21T03:53:16.649Z,13.01
2022-08-21T03:55:46.793Z,13.15
2022-08-21T03:58:16.494Z,13.31
2022-08-21T04:00:45.497Z,13.46
2022-08-21T04:03:13.660Z,13.80
2022-08-21T04:05:42.572Z,13.86
2022-08-21T04:08:12.037Z,13.93
2022-08-21T04:10:41.114Z,13.80
2022-08-21T04:13:10.602Z,13.82
2022-08-21T04:15:38.656Z,14.05
2022-08-21T04:18:07.081Z,14.43
2022-08-21T04:20:35.701Z,14.47
2022-08-21T04:23:04.059Z,14.46
2022-08-21T04:25:33.618Z,14.64
2022-08-21T04:28:02.840Z,14.85
2022-08-21T04:30:30.923Z,15.11
2022-08-21T04:32:59.834Z,15.16
2022-08-21T04:35:29.358Z,14.94
2022-08-21T04:37:57.457Z,14.98
2022-08-21T04:40:26.977Z,14.86
2022-08-21T04:42:59.893Z,15.03
2022-08-21T04:45:30.250Z,14.86
2022-08-21T04:48:00.673Z,15.03
2022-08-21T04:50:32.165Z,15.09
2022-08-21T04:53:00.739Z,15.02
2022-08-21T04:55:29.485Z,14.94
2022-08-21T04:57:59.282Z,14.90
2022-08-21T05:00:27.710Z,15.14
2022-08-21T05:03:00.159Z,15.30
2022-08-21T05:05:30.295Z,15.10
2022-08-21T05:07:59.356Z,15.17
2022-08-21T05:10:27.696Z,15.14
2022-08-21T05:12:55.886Z,14.57
2022-08-21T05:15:25.451Z,14.16
2022-08-21T05:18:00.978Z,13.43
2022-08-21T05:20:30.049Z,13.73
2022-08-21T05:22:58.791Z,13.90
2022-08-21T05:25:28.121Z,14.20
2022-08-21T05:27:58.100Z,14.27
2022-08-21T05:30:30.020Z,14.06
2022-08-21T05:33:00.258Z,14.24
2022-08-21T05:35:29.607Z,14.39
2022-08-21T05:37:57.893Z,14.63
2022-08-21T05:40:26.383Z,14.66
2022-08-21T05:42:55.880Z,15.01
2022-08-21T05:45:41.943Z,15.35
2022-08-21T05:48:16.718Z,15.44
2022-08-21T05:50:45.359Z,15.33
2022-08-21T05:53:13.496Z,15.34
2022-08-21T05:55:45.876Z,15.62
2022-08-21T05:58:15.195Z,15.96
2022-08-21T06:00:43.376Z,16.23
2022-08-21T06:03:18.135Z,16.19
2022-08-21T06:05:46.710Z,16.15
2022-08-21T06:08:16.707Z,16.04
2022-08-21T06:10:44.682Z,15.83
2022-08-21T06:13:13.311Z,15.79
2022-08-21T06:15:41.555Z,16.50
2022-08-21T06:18:09.773Z,16.47
2022-08-21T06:20:39.979Z,16.36
2022-08-21T06:23:08.074Z,16.38
2022-08-21T06:25:36.371Z,16.38
2022-08-21T06:28:06.322Z,16.51
2022-08-21T06:30:34.847Z,16.56
2022-08-21T06:33:03.450Z,16.72
2022-08-21T06:35:31.968Z,16.78
2022-08-21T06:38:01.461Z,17.00
2022-08-21T06:40:30.830Z,16.99
2022-08-21T06:43:07.944Z,17.16
2022-08-21T06:45:36.008Z,17.33
2022-08-21T06:48:04.592Z,17.17
2022-08-21T06:50:33.328Z,17.34
2022-08-21T06:53:07.098Z,17.44
2022-08-21T06:55:35.262Z,17.56
2022-08-21T06:58:03.529Z,17.77
2022-08-21T07:00:31.719Z,17.83
2022-08-21T07:03:00.066Z,17.99
2022-08-21T07:05:29.218Z,18.00
2022-08-21T07:07:58.042Z,18.19
2022-08-21T07:10:27.967Z,18.37
2022-08-21T07:13:00.521Z,18.54
2022-08-21T07:15:30.843Z,18.57
2022-08-21T07:18:00.231Z,18.68
2022-08-21T07:20:29.253Z,18.86
2022-08-21T07:22:58.057Z,19.09
2022-08-21T07:25:27.713Z,19.11
2022-08-21T07:27:55.768Z,19.29
2022-08-21T07:30:24.241Z,19.37
2022-08-21T07:32:52.679Z,19.55
2022-08-21T07:35:21.662Z,19.45
2022-08-21T07:37:49.903Z,19.40
2022-08-21T07:40:19.228Z,19.59
2022-08-21T07:42:52.742Z,19.85
2022-08-21T07:45:21.959Z,19.83
2022-08-21T07:47:53.047Z,20.01
2022-08-21T07:50:24.753Z,19.92
2022-08-21T07:52:52.778Z,20.10
2022-08-21T07:55:26.207Z,20.15
2022-08-21T07:57:55.664Z,19.98
2022-08-21T08:00:25.923Z,19.87
2022-08-21T08:02:57.908Z,20.30
2022-08-21T08:05:28.757Z,20.41
2022-08-21T08:07:57.088Z,20.45
2022-08-21T08:10:25.854Z,20.43
2022-08-21T08:12:56.655Z,20.70
2022-08-21T08:15:26.211Z,20.84
2022-08-21T08:17:55.897Z,21.08
2022-08-21T08:20:27.758Z,21.01
2022-08-21T08:22:57.326Z,20.74
2022-08-21T08:25:27.067Z,20.86
2022-08-21T08:27:56.685Z,21.32
2022-08-21T08:30:26.527Z,21.06
2022-08-21T08:33:00.941Z,21.38
2022-08-21T08:35:31.151Z,21.59
2022-08-21T08:37:59.717Z,21.68
2022-08-21T08:40:36.869Z,21.25
2022-08-21T08:43:08.544Z,21.13
2022-08-21T08:45:45.150Z,21.15
2022-08-21T08:48:16.354Z,21.48
2022-08-21T08:50:49.923Z,21.62
2022-08-21T08:53:23.280Z,21.73
2022-08-21T08:55:54.177Z,22.10
2022-08-21T08:58:31.276Z,22.18
2022-08-21T09:01:00.305Z,21.94
2022-08-21T09:03:29.319Z,22.10
2022-08-21T09:06:07.696Z,22.32
2022-08-21T09:08:50.785Z,22.53
2022-08-21T09:11:27.981Z,22.08
2022-08-21T09:14:07.304Z,22.72
2022-08-21T09:16:43.480Z,21.92
2022-08-21T09:19:25.048Z,22.56
2022-08-21T09:22:02.678Z,22.50
2022-08-21T09:24:34.241Z,22.64
2022-08-21T09:27:07.218Z,22.42
2022-08-21T09:29:42.888Z,22.84
2022-08-21T09:32:18.663Z,22.97
2022-08-21T09:34:58.530Z,22.81
2022-08-21T09:37:27.690Z,23.21
2022-08-21T09:39:55.940Z,22.72
2022-08-21T09:42:27.099Z,22.93
2022-08-21T09:45:13.664Z,23.04
2022-08-21T09:47:42.527Z,22.91
2022-08-21T09:50:13.368Z,23.17
2022-08-21T09:52:47.744Z,23.30
2022-08-21T09:55:43.609Z,23.18
2022-08-21T09:58:15.922Z,23.23
2022-08-21T10:00:45.661Z,23.35
2022-08-21T10:03:17.361Z,23.71
2022-08-21T10:05:58.389Z,23.45
2022-08-21T10:08:30.405Z,23.35
2022-08-21T10:11:06.282Z,23.47
2022-08-21T10:13:47.025Z,24.18
2022-08-21T10:16:26.890Z,24.10
2022-08-21T10:19:03.854Z,24.26
2022-08-21T10:21:36.342Z,24.61
2022-08-21T10:24:09.552Z,23.71
2022-08-21T10:26:47.041Z,24.04
2022-08-21T10:29:26.362Z,24.79
2022-08-21T10:32:00.086Z,24.20
2022-08-21T10:34:39.880Z,24.71
2022-08-21T10:37:17.045Z,24.85
2022-08-21T10:39:51.478Z,24.96
2022-08-21T10:42:28.640Z,25.46
2022-08-21T10:45:06.541Z,24.77
2022-08-21T10:47:38.191Z,24.53
2022-08-21T10:50:13.120Z,24.45
2022-08-21T10:52:55.983Z,25.01
2022-08-21T10:55:28.341Z,24.17
2022-08-21T10:58:00.655Z,24.86
2022-08-21T11:00:32.527Z,25.30
2022-08-21T11:03:05.280Z,25.11
2022-08-21T11:05:35.815Z,24.97
2022-08-21T11:08:09.066Z,25.95
2022-08-21T11:10:51.171Z,26.25
2022-08-21T11:13:31.852Z,25.41
2022-08-21T11:16:04.969Z,24.78
2022-08-21T11:18:37.768Z,24.91
2022-08-21T11:21:13.210Z,24.59
2022-08-21T11:23:45.986Z,24.54
2022-08-21T11:26:20.470Z,24.72
2022-08-21T11:28:53.510Z,24.79
2022-08-21T11:31:42.882Z,24.09
2022-08-21T11:34:20.742Z,25.44
2022-08-21T11:36:55.330Z,25.86
2022-08-21T11:39:28.095Z,26.15
2022-08-21T11:42:08.756Z,25.34
2022-08-21T11:44:48.562Z,26.33
2022-08-21T11:47:20.198Z,26.23
2022-08-21T11:49:56.053Z,25.93
2022-08-21T11:52:30.935Z,25.95
2022-08-21T11:55:03.134Z,26.28
2022-08-21T11:57:36.791Z,26.14
2022-08-21T12:00:09.538Z,27.02
2022-08-21T12:02:55.839Z,26.46
2022-08-21T12:05:30.418Z,27.06
2022-08-21T12:08:11.815Z,26.59
2022-08-21T12:10:42.445Z,26.55
2022-08-21T12:13:39.785Z,26.07
2022-08-21T12:16:14.088Z,26.64
2022-08-21T12:18:42.751Z,27.32
2022-08-21T12:21:23.915Z,26.80
2022-08-21T12:24:03.224Z,26.79
2022-08-21T12:26:33.312Z,27.96
2022-08-21T12:29:13.730Z,27.50
2022-08-21T12:31:52.684Z,26.15
2022-08-21T12:34:22.359Z,26.34
2022-08-21T12:36:56.136Z,26.30
2022-08-21T12:39:27.922Z,26.50
2022-08-21T12:42:01.939Z,26.02
2022-08-21T12:44:36.789Z,27.36
2022-08-21T12:47:08.076Z,27.11
2022-08-21T12:49:38.855Z,28.16
2022-08-21T12:52:13.896Z,27.53
2022-08-21T12:54:43.751Z,27.07
2022-08-21T12:57:20.934Z,27.56
2022-08-21T12:59:57.690Z,27.12
2022-08-21T13:02:29.126Z,28.12
2022-08-21T13:04:58.275Z,28.30
2022-08-21T13:07:33.237Z,27.72
2022-08-21T13:10:03.955Z,27.85
2022-08-21T13:12:32.830Z,26.24
2022-08-21T13:15:08.301Z,26.48
2022-08-21T13:17:50.495Z,25.44
2022-08-21T13:20:24.633Z,27.09
2022-08-21T13:22:54.103Z,25.96
2022-08-21T13:25:27.391Z,25.88
2022-08-21T13:28:01.896Z,26.09
2022-08-21T13:30:31.614Z,26.28
2022-08-21T13:33:01.982Z,26.70
2022-08-21T13:35:32.904Z,28.45
2022-08-21T13:38:03.238Z,28.04
2022-08-21T13:40:35.160Z,27.38
2022-08-21T13:43:03.590Z,27.87
2022-08-21T13:45:35.190Z,27.92
2022-08-21T13:48:06.150Z,27.85
2022-08-21T13:50:36.802Z,27.74
2022-08-21T13:53:08.604Z,27.33
2022-08-21T13:55:39.256Z,27.43
2022-08-21T13:58:08.115Z,27.68
2022-08-21T14:00:38.048Z,28.42
2022-08-21T14:03:09.205Z,28.73
2022-08-21T14:05:39.417Z,28.14
2022-08-21T14:08:13.207Z,29.02
2022-08-21T14:10:46.112Z,28.67
2022-08-21T14:13:30.639Z,28.29
2022-08-21T14:16:00.123Z,27.30
2022-08-21T14:18:28.228Z,29.02
2022-08-21T14:21:07.342Z,28.46
2022-08-21T14:23:36.739Z,27.39
2022-08-21T14:26:06.927Z,27.32
2022-08-21T14:28:36.511Z,28.79
2022-08-21T14:31:14.931Z,29.67
2022-08-21T14:33:43.008Z,30.28
2022-08-21T14:36:11.345Z,30.03
2022-08-21T14:38:42.669Z,29.36
2022-08-21T14:41:17.992Z,30.15
2022-08-21T14:43:46.405Z,30.03
2022-08-21T14:46:15.935Z,28.30
2022-08-21T14:48:44.066Z,29.52
2022-08-21T14:51:12.398Z,27.39
2022-08-21T14:53:41.999Z,29.84
2022-08-21T14:56:10.022Z,29.51
2022-08-21T14:58:40.450Z,29.76
2022-08-21T15:01:09.577Z,30.82
2022-08-21T15:03:37.779Z,31.18
2022-08-21T15:06:07.580Z,29.72
2022-08-21T15:08:35.757Z,30.76
2022-08-21T15:11:12.081Z,30.96
2022-08-21T15:13:42.774Z,31.28
2022-08-21T15:16:11.203Z,29.86
2022-08-21T15:18:39.317Z,29.04
2022-08-21T15:21:07.783Z,29.57
2022-08-21T15:23:35.973Z,29.85
2022-08-21T15:26:10.043Z,29.51
2022-08-21T15:28:39.117Z,29.73
2022-08-21T15:31:07.462Z,31.06
2022-08-21T15:33:36.067Z,29.64
2022-08-21T15:36:04.479Z,28.34
2022-08-21T15:38:32.520Z,28.77
2022-08-21T15:41:00.617Z,29.40
2022-08-21T15:43:32.090Z,28.87
2022-08-21T15:46:01.350Z,28.56
2022-08-21T15:48:29.597Z,27.80
2022-08-21T15:50:57.679Z,27.83
2022-08-21T15:53:25.814Z,28.71
2022-08-21T15:55:53.872Z,27.71
2022-08-21T15:58:22.044Z,28.93
2022-08-21T16:00:51.372Z,28.82
2022-08-21T16:03:22.694Z,27.08
2022-08-21T16:05:53.268Z,27.32
2022-08-21T16:08:21.686Z,27.19
2022-08-21T16:10:52.408Z,28.36
2022-08-21T16:13:23.574Z,27.11
2022-08-21T16:15:52.959Z,27.25
2022-08-21T16:18:21.751Z,26.22
2022-08-21T16:20:49.902Z,27.11
2022-08-21T16:23:17.935Z,26.24
2022-08-21T16:25:45.874Z,26.12
2022-08-21T16:28:16.560Z,26.20
2022-08-21T16:30:45.440Z,25.81
2022-08-21T16:33:25.009Z,26.53
2022-08-21T16:35:53.155Z,26.14
2022-08-21T16:38:21.246Z,26.79
2022-08-21T16:40:49.427Z,26.77
2022-08-21T16:43:18.207Z,27.09
2022-08-21T16:45:46.256Z,27.58
2022-08-21T16:48:15.608Z,28.55
2022-08-21T16:50:46.851Z,29.07
2022-08-21T16:53:17.180Z,29.21
2022-08-21T16:55:45.401Z,29.56
2022-08-21T16:58:16.848Z,29.35
2022-08-21T17:00:45.227Z,28.63
2022-08-21T17:03:17.667Z,29.27
2022-08-21T17:05:45.743Z,28.83
2022-08-21T17:08:13.770Z,27.37
2022-08-21T17:10:44.963Z,28.17
2022-08-21T17:13:12.971Z,27.77
2022-08-21T17:15:41.373Z,27.61
2022-08-21T17:18:12.165Z,26.84
2022-08-21T17:20:42.073Z,27.02
2022-08-21T17:23:10.582Z,27.50
2022-08-21T17:25:40.047Z,27.44
2022-08-21T17:28:09.695Z,26.09
2022-08-21T17:30:38.089Z,25.25
2022-08-21T17:33:06.059Z,25.77
2022-08-21T17:35:34.049Z,25.55
2022-08-21T17:38:03.402Z,25.85
2022-08-21T17:40:32.510Z,25.83
2022-08-21T17:43:05.574Z,25.90
2022-08-21T17:45:33.726Z,25.73
2022-08-21T17:48:05.461Z,25.02
2022-08-21T17:50:33.448Z,24.41
2022-08-21T17:53:01.463Z,24.58
2022-08-21T17:55:31.334Z,24.34
2022-08-21T17:58:02.183Z,23.87
2022-08-21T18:00:31.406Z,24.23
2022-08-21T18:03:02.314Z,23.63
2022-08-21T18:05:30.648Z,23.91
2022-08-21T18:08:01.040Z,23.84
2022-08-21T18:10:30.685Z,23.56
2022-08-21T18:12:59.185Z,23.99
2022-08-21T18:15:27.414Z,23.51
2022-08-21T18:17:55.545Z,23.85
2022-08-21T18:20:24.657Z,24.53
2022-08-21T18:22:52.843Z,23.71
2022-08-21T18:25:21.793Z,22.85
2022-08-21T18:27:52.459Z,23.22
2022-08-21T18:30:22.589Z,22.81
2022-08-21T18:32:50.951Z,22.94
2022-08-21T18:35:19.028Z,22.74
2022-08-21T18:37:46.995Z,22.91
2022-08-21T18:40:15.837Z,23.00
2022-08-21T18:42:55.144Z,23.19
2022-08-21T18:45:25.467Z,22.90
2022-08-21T18:47:55.146Z,22.78
2022-08-21T18:50:26.660Z,23.18
2022-08-21T18:52:55.015Z,23.22
2022-08-21T18:58:13.207Z,23.23
2022-08-21T19:00:47.520Z,23.21
2022-08-21T19:03:23.737Z,22.64
2022-08-21T19:05:52.476Z,21.95
2022-08-21T19:08:22.946Z,22.02
2022-08-21T19:10:53.126Z,21.49
2022-08-21T19:13:22.476Z,21.56
2022-08-21T19:15:53.776Z,21.58
2022-08-21T19:18:28.181Z,22.28
2022-08-21T19:20:57.527Z,22.08
2022-08-21T19:23:29.398Z,22.55
2022-08-21T19:26:00.447Z,22.51
2022-08-21T19:28:31.339Z,22.33
2022-08-21T19:31:05.341Z,22.37
2022-08-21T19:33:35.493Z,22.30
2022-08-21T19:36:03.691Z,22.56
2022-08-21T19:38:31.860Z,22.41
2022-08-21T19:41:00.360Z,22.68
2022-08-21T19:43:29.236Z,22.28
2022-08-21T19:45:58.442Z,22.08
2022-08-21T19:48:28.089Z,21.82
2022-08-21T19:50:56.103Z,21.62
2022-08-21T19:53:24.189Z,21.19
2022-08-21T19:55:52.260Z,21.31
2022-08-21T19:58:35.497Z,22.01
2022-08-21T20:01:05.520Z,22.18
2022-08-21T20:03:43.204Z,22.20
2022-08-21T20:06:11.944Z,22.24
2022-08-21T20:08:39.957Z,22.10
2022-08-21T20:11:08.776Z,21.72
2022-08-21T20:13:37.124Z,21.82
2022-08-21T20:16:07.929Z,21.69
2022-08-21T20:18:40.565Z,21.45
2022-08-21T20:21:13.346Z,21.47
2022-08-21T20:23:43.103Z,21.19
2022-08-21T20:26:17.524Z,21.02
2022-08-21T20:28:46.555Z,20.91
2022-08-21T20:31:20.104Z,20.89
2022-08-21T20:33:49.575Z,21.38
2022-08-21T20:36:19.199Z,21.64
2022-08-21T20:38:48.265Z,21.70
2022-08-21T20:41:21.128Z,21.49
2022-08-21T20:43:59.048Z,21.52
2022-08-21T20:46:28.322Z,21.70
2022-08-21T20:48:56.531Z,21.37
2022-08-21T20:51:29.860Z,21.27
2022-08-21T20:54:04.025Z,21.27
2022-08-21T20:56:39.478Z,21.36
2022-08-21T20:59:17.677Z,21.49
2022-08-21T21:01:47.921Z,21.58
2022-08-21T21:04:25.623Z,21.64
2022-08-21T21:09:45.907Z,21.03
2022-08-21T21:12:17.274Z,20.92
2022-08-21T21:14:46.974Z,20.56
2022-08-21T21:17:18.411Z,20.39
2022-08-21T21:20:00.095Z,20.17
2022-08-21T21:22:32.603Z,20.13
2022-08-21T21:25:06.120Z,20.47
2022-08-21T21:27:36.838Z,20.97
2022-08-21T21:30:12.108Z,21.23
2022-08-21T21:32:42.644Z,21.10
2022-08-21T21:35:14.506Z,20.42
2022-08-21T21:37:49.822Z,20.04
2022-08-21T21:40:36.829Z,19.82
2022-08-21T21:43:11.069Z,19.87
2022-08-21T21:45:43.772Z,19.98
2022-08-21T21:51:13.425Z,20.34
2022-08-21T21:53:53.362Z,20.15
2022-08-21T21:56:27.483Z,20.45
2022-08-21T21:59:18.363Z,20.39
2022-08-21T22:01:50.717Z,20.39
2022-08-21T22:04:24.268Z,20.64
2022-08-21T22:07:03.816Z,21.19
2022-08-21T22:09:41.877Z,21.48
2022-08-21T22:12:28.016Z,21.23
2022-08-21T22:14:56.202Z,21.28
2022-08-21T22:17:34.991Z,21.39
2022-08-21T22:20:07.636Z,21.09
2022-08-21T22:22:40.792Z,21.15
2022-08-21T22:25:18.453Z,21.17
2022-08-21T22:27:48.931Z,21.04
2022-08-21T22:30:18.826Z,21.02
2022-08-21T22:32:50.436Z,21.06
2022-08-21T22:35:21.128Z,20.78
2022-08-21T22:37:52.684Z,20.85
2022-08-21T22:40:26.293Z,20.75
2022-08-21T22:43:03.875Z,20.72
2022-08-21T22:45:57.239Z,20.77
2022-08-21T22:48:29.322Z,20.48
2022-08-21T22:51:03.749Z,20.32
2022-08-21T22:53:36.073Z,20.05
2022-08-21T22:56:07.668Z,19.68
2022-08-21T22:58:38.595Z,19.71
2022-08-21T23:01:29.972Z,19.71
2022-08-21T23:03:59.583Z,19.60
2022-08-21T23:06:31.874Z,19.61
2022-08-21T23:09:00.774Z,19.67
2022-08-21T23:11:39.916Z,19.69
2022-08-21T23:14:08.432Z,20.19
2022-08-21T23:16:48.253Z,20.40
2022-08-21T23:19:22.154Z,20.47
2022-08-21T23:21:55.194Z,20.48
2022-08-21T23:24:52.668Z,20.08
2022-08-21T23:27:35.950Z,19.97
2022-08-21T23:30:08.284Z,20.14
2022-08-21T23:33:04.284Z,19.89
2022-08-21T23:36:00.313Z,19.67
2022-08-21T23:38:40.101Z,19.60
2022-08-21T23:41:18.907Z,19.90
2022-08-21T23:44:10.556Z,19.78
2022-08-21T23:46:51.014Z,19.47
2022-08-21T23:49:29.447Z,19.14
2022-08-21T23:52:07.597Z,18.80
2022-08-21T23:54:44.761Z,19.00
